Portada
METAR-TAF:

METAR-TAF

Aeroports :

Sabzevar, Iran

latitud: 36-13N, longitud: 057-40E, altitud: 941 m

Observació

L'informe es va fer fa 12 hores i 36 minuts, a les 10:00 UTC
Vent calma
Temperatura 18°C
Humitat 12%
Pressió 1024 hPa
Visibilitat 10 km o més
sense núvols per sota de 1500 mi sense presència de cumulonimbus.

METAR: OIMS 131000Z 00000KT CAVOK 18/M12 Q1024

Hora: 02:06 (22:36 UTC)


TAF: manca

Observacions i pronòstics meteorològics de més de 4000 aeroports (METAR i TAF).

Les estacions disponibles són els punts grocs i vermells al mapa.

Posi el ratolí al punt desitjat per veure el nom de l'estació.

Feu clic per veure les observacions i els pronòstics meteorològics.

Per canviar el mapa: feu clic els botons verds amb una creu de color negre per apropar; al botó verd amb un guió per allunyar la imatge; o en les fletxes verdes per a mapes adjacents.


METAR-TAF: